sensor_id;sensor_type;location;lat;lon;timestamp;temperature;humidity
1878;DHT22;939;51.426;6.972;2023-04-02T00:45:40;8.40;99.90
1878;DHT22;939;51.426;6.972;2023-04-02T04:24:55;7.10;99.90
1878;DHT22;939;51.426;6.972;2023-04-02T04:27:26;7.10;99.90
1878;DHT22;939;51.426;6.972;2023-04-02T04:30:02;7.10;99.90
1878;DHT22;939;51.426;6.972;2023-04-02T04:32:33;7.00;99.90
1878;DHT22;939;51.426;6.972;2023-04-02T04:35:06;7.10;99.90
1878;DHT22;939;51.426;6.972;2023-04-02T04:37:36;7.00;99.90
1878;DHT22;939;51.426;6.972;2023-04-02T04:40:13;7.00;99.90
1878;DHT22;939;51.426;6.972;2023-04-02T04:42:42;6.90;99.90
1878;DHT22;939;51.426;6.972;2023-04-02T04:45:22;6.80;99.90
1878;DHT22;939;51.426;6.972;2023-04-02T04:47:55;6.80;99.90
1878;DHT22;939;51.426;6.972;2023-04-02T04:50:28;6.80;99.90
1878;DHT22;939;51.426;6.972;2023-04-02T04:52:56;6.90;99.90
1878;DHT22;939;51.426;6.972;2023-04-02T04:55:36;6.90;99.90
1878;DHT22;939;51.426;6.972;2023-04-02T04:58:10;6.80;99.90
1878;DHT22;939;51.426;6.972;2023-04-02T05:00:46;6.90;99.90
1878;DHT22;939;51.426;6.972;2023-04-02T05:03:23;6.90;99.90
1878;DHT22;939;51.426;6.972;2023-04-02T05:05:52;7.00;99.90
1878;DHT22;939;51.426;6.972;2023-04-02T05:08:24;7.00;99.90
1878;DHT22;939;51.426;6.972;2023-04-02T05:10:56;7.00;99.90
1878;DHT22;939;51.426;6.972;2023-04-02T05:13:30;7.10;99.90
1878;DHT22;939;51.426;6.972;2023-04-02T05:16:06;7.00;99.90
1878;DHT22;939;51.426;6.972;2023-04-02T05:18:40;7.00;99.90
1878;DHT22;939;51.426;6.972;2023-04-02T05:21:15;7.00;99.90
1878;DHT22;939;51.426;6.972;2023-04-02T05:23:46;7.00;99.90
1878;DHT22;939;51.426;6.972;2023-04-02T05:26:19;7.00;99.90
1878;DHT22;939;51.426;6.972;2023-04-02T05:28:53;6.90;99.90
1878;DHT22;939;51.426;6.972;2023-04-02T05:31:24;6.90;99.90
1878;DHT22;939;51.426;6.972;2023-04-02T05:33:52;6.80;99.90
1878;DHT22;939;51.426;6.972;2023-04-02T05:36:21;6.90;99.90
1878;DHT22;939;51.426;6.972;2023-04-02T05:38:49;6.80;99.90
1878;DHT22;939;51.426;6.972;2023-04-02T05:41:23;6.60;99.90
1878;DHT22;939;51.426;6.972;2023-04-02T05:43:57;6.50;99.90
1878;DHT22;939;51.426;6.972;2023-04-02T05:46:27;6.50;99.90
1878;DHT22;939;51.426;6.972;2023-04-02T05:48:58;6.50;99.90
1878;DHT22;939;51.426;6.972;2023-04-02T05:51:34;6.60;99.90
1878;DHT22;939;51.426;6.972;2023-04-02T05:54:04;6.50;99.90
1878;DHT22;939;51.426;6.972;2023-04-02T05:56:37;6.50;99.90
1878;DHT22;939;51.426;6.972;2023-04-02T05:59:10;6.60;99.90
1878;DHT22;939;51.426;6.972;2023-04-02T06:05:14;6.70;99.90
1878;DHT22;939;51.426;6.972;2023-04-02T06:11:35;6.60;99.90
1878;DHT22;939;51.426;6.972;2023-04-02T06:14:32;6.70;99.90
1878;DHT22;939;51.426;6.972;2023-04-02T06:17:28;6.60;99.90
1878;DHT22;939;51.426;6.972;2023-04-02T06:20:11;6.70;99.90
1878;DHT22;939;51.426;6.972;2023-04-02T06:22:55;6.60;99.90
1878;DHT22;939;51.426;6.972;2023-04-02T06:25:28;6.60;99.90
1878;DHT22;939;51.426;6.972;2023-04-02T06:28:04;6.60;99.90
1878;DHT22;939;51.426;6.972;2023-04-02T06:31:00;6.50;99.90
1878;DHT22;939;51.426;6.972;2023-04-02T06:33:34;6.60;99.90
1878;DHT22;939;51.426;6.972;2023-04-02T06:36:12;6.50;99.90
1878;DHT22;939;51.426;6.972;2023-04-02T06:42:03;6.50;99.90
1878;DHT22;939;51.426;6.972;2023-04-02T06:44:43;6.60;99.90
1878;DHT22;939;51.426;6.972;2023-04-02T06:47:24;6.50;99.90
1878;DHT22;939;51.426;6.972;2023-04-02T06:50:25;6.50;99.90
1878;DHT22;939;51.426;6.972;2023-04-02T06:55:01;6.30;99.90
1878;DHT22;939;51.426;6.972;2023-04-02T06:56:43;6.40;99.90
1878;DHT22;939;51.426;6.972;2023-04-02T06:59:27;6.40;99.90
1878;DHT22;939;51.426;6.972;2023-04-02T07:02:27;6.40;99.90
1878;DHT22;939;51.426;6.972;2023-04-02T07:05:34;6.50;99.90
1878;DHT22;939;51.426;6.972;2023-04-02T07:08:16;6.60;99.90
1878;DHT22;939;51.426;6.972;2023-04-02T07:10:47;6.60;99.90
1878;DHT22;939;51.426;6.972;2023-04-02T07:16:45;6.70;99.90
1878;DHT22;939;51.426;6.972;2023-04-02T07:26:03;6.60;99.90
1878;DHT22;939;51.426;6.972;2023-04-02T07:32:33;6.70;99.90
1878;DHT22;939;51.426;6.972;2023-04-02T07:35:04;6.80;99.90
1878;DHT22;939;51.426;6.972;2023-04-02T07:37:42;6.70;99.90
1878;DHT22;939;51.426;6.972;2023-04-02T07:40:42;6.70;99.90
1878;DHT22;939;51.426;6.972;2023-04-02T07:59:59;6.90;99.90
1878;DHT22;939;51.426;6.972;2023-04-02T08:02:39;6.80;99.90
1878;DHT22;939;51.426;6.972;2023-04-02T08:06:34;6.80;99.90
1878;DHT22;939;51.426;6.972;2023-04-02T08:08:33;6.90;99.90
1878;DHT22;939;51.426;6.972;2023-04-02T08:11:49;6.80;99.90
1878;DHT22;939;51.426;6.972;2023-04-02T08:14:32;6.90;99.90
1878;DHT22;939;51.426;6.972;2023-04-02T08:21:21;6.90;99.90
1878;DHT22;939;51.426;6.972;2023-04-02T08:24:11;7.00;99.90
1878;DHT22;939;51.426;6.972;2023-04-02T08:30:29;7.00;99.90
1878;DHT22;939;51.426;6.972;2023-04-02T08:33:29;7.10;99.90
1878;DHT22;939;51.426;6.972;2023-04-02T08:39:56;7.30;99.90
1878;DHT22;939;51.426;6.972;2023-04-02T08:45:52;7.40;99.90
1878;DHT22;939;51.426;6.972;2023-04-02T08:53:25;7.40;99.90
1878;DHT22;939;51.426;6.972;2023-04-02T08:55:55;7.30;99.90
1878;DHT22;939;51.426;6.972;2023-04-02T09:02:22;7.40;99.90
1878;DHT22;939;51.426;6.972;2023-04-02T09:08:47;7.30;99.90
1878;DHT22;939;51.426;6.972;2023-04-02T09:21:40;7.90;99.90
1878;DHT22;939;51.426;6.972;2023-04-02T09:27:45;7.80;99.90
1878;DHT22;939;51.426;6.972;2023-04-02T09:30:53;8.00;99.90
1878;DHT22;939;51.426;6.972;2023-04-02T09:33:52;7.70;99.90
1878;DHT22;939;51.426;6.972;2023-04-02T09:39:49;7.70;99.90
1878;DHT22;939;51.426;6.972;2023-04-02T09:44:17;7.70;99.90
1878;DHT22;939;51.426;6.972;2023-04-02T09:46:34;7.90;99.90
1878;DHT22;939;51.426;6.972;2023-04-02T09:49:24;8.10;99.90
1878;DHT22;939;51.426;6.972;2023-04-02T09:52:34;7.90;99.90
1878;DHT22;939;51.426;6.972;2023-04-02T09:55:28;7.80;99.90
1878;DHT22;939;51.426;6.972;2023-04-02T10:08:17;8.20;99.90
1878;DHT22;939;51.426;6.972;2023-04-02T10:14:31;8.20;99.90
1878;DHT22;939;51.426;6.972;2023-04-02T10:18:08;8.20;99.90
1878;DHT22;939;51.426;6.972;2023-04-02T10:20:38;8.10;99.90
1878;DHT22;939;51.426;6.972;2023-04-02T10:23:13;8.30;99.90
1878;DHT22;939;51.426;6.972;2023-04-02T10:26:02;8.30;99.90
1878;DHT22;939;51.426;6.972;2023-04-02T10:28:46;8.40;99.90
1878;DHT22;939;51.426;6.972;2023-04-02T10:31:20;8.20;99.90
1878;DHT22;939;51.426;6.972;2023-04-02T10:34:27;8.20;99.90
1878;DHT22;939;51.426;6.972;2023-04-02T10:37:43;8.20;99.90
1878;DHT22;939;51.426;6.972;2023-04-02T10:40:22;8.20;99.90
1878;DHT22;939;51.426;6.972;2023-04-02T10:43:21;8.20;99.90
1878;DHT22;939;51.426;6.972;2023-04-02T10:49:34;8.10;99.90
1878;DHT22;939;51.426;6.972;2023-04-02T10:52:09;8.10;99.90
1878;DHT22;939;51.426;6.972;2023-04-02T10:54:59;8.00;99.90
1878;DHT22;939;51.426;6.972;2023-04-02T10:57:46;8.00;99.90
1878;DHT22;939;51.426;6.972;2023-04-02T11:00:35;8.10;99.90
1878;DHT22;939;51.426;6.972;2023-04-02T11:03:21;8.00;99.90
1878;DHT22;939;51.426;6.972;2023-04-02T11:06:17;8.10;99.90
1878;DHT22;939;51.426;6.972;2023-04-02T11:08:51;8.00;99.90
1878;DHT22;939;51.426;6.972;2023-04-02T11:12:18;8.00;99.90
1878;DHT22;939;51.426;6.972;2023-04-02T11:15:12;8.00;99.90
1878;DHT22;939;51.426;6.972;2023-04-02T11:17:45;8.00;99.90
1878;DHT22;939;51.426;6.972;2023-04-02T11:23:57;8.00;99.90
1878;DHT22;939;51.426;6.972;2023-04-02T11:30:06;8.10;99.90
1878;DHT22;939;51.426;6.972;2023-04-02T11:32:45;8.10;99.90
1878;DHT22;939;51.426;6.972;2023-04-02T11:35:36;8.30;99.90
1878;DHT22;939;51.426;6.972;2023-04-02T11:41:08;8.20;99.90
1878;DHT22;939;51.426;6.972;2023-04-02T11:43:49;8.20;99.90
1878;DHT22;939;51.426;6.972;2023-04-02T11:46:40;8.30;99.90
1878;DHT22;939;51.426;6.972;2023-04-02T11:49:36;8.50;99.90
1878;DHT22;939;51.426;6.972;2023-04-02T11:52:22;8.50;99.90
1878;DHT22;939;51.426;6.972;2023-04-02T11:55:02;8.70;99.90
1878;DHT22;939;51.426;6.972;2023-04-02T11:57:49;8.60;99.90
1878;DHT22;939;51.426;6.972;2023-04-02T12:00:30;8.90;99.90
1878;DHT22;939;51.426;6.972;2023-04-02T12:03:24;8.90;99.90
1878;DHT22;939;51.426;6.972;2023-04-02T12:06:00;8.80;99.90
1878;DHT22;939;51.426;6.972;2023-04-02T12:08:37;8.60;99.90
1878;DHT22;939;51.426;6.972;2023-04-02T12:11:06;8.60;99.90
1878;DHT22;939;51.426;6.972;2023-04-02T12:13:55;8.80;99.90
1878;DHT22;939;51.426;6.972;2023-04-02T12:16:24;9.00;99.90
1878;DHT22;939;51.426;6.972;2023-04-02T12:18:56;9.00;99.90
1878;DHT22;939;51.426;6.972;2023-04-02T12:21:25;9.20;99.90
1878;DHT22;939;51.426;6.972;2023-04-02T12:23:55;9.30;99.90
1878;DHT22;939;51.426;6.972;2023-04-02T12:26:32;9.30;99.90
1878;DHT22;939;51.426;6.972;2023-04-02T12:29:23;9.30;99.90
1878;DHT22;939;51.426;6.972;2023-04-02T12:31:51;9.30;99.90
1878;DHT22;939;51.426;6.972;2023-04-02T12:34:20;9.20;99.90
1878;DHT22;939;51.426;6.972;2023-04-02T12:36:55;9.20;99.90
1878;DHT22;939;51.426;6.972;2023-04-02T12:39:24;9.10;99.90
1878;DHT22;939;51.426;6.972;2023-04-02T12:41:56;9.00;99.90
1878;DHT22;939;51.426;6.972;2023-04-02T12:44:48;9.10;99.90
1878;DHT22;939;51.426;6.972;2023-04-02T12:47:15;9.10;99.90
1878;DHT22;939;51.426;6.972;2023-04-02T12:49:51;9.10;99.90
1878;DHT22;939;51.426;6.972;2023-04-02T12:52:22;9.20;99.90
1878;DHT22;939;51.426;6.972;2023-04-02T12:54:55;9.20;99.90
1878;DHT22;939;51.426;6.972;2023-04-02T12:57:36;9.20;99.90
1878;DHT22;939;51.426;6.972;2023-04-02T13:00:30;9.10;99.90
1878;DHT22;939;51.426;6.972;2023-04-02T13:03:15;9.10;99.90
1878;DHT22;939;51.426;6.972;2023-04-02T13:05:57;9.10;99.90
1878;DHT22;939;51.426;6.972;2023-04-02T13:11:50;9.10;99.90
1878;DHT22;939;51.426;6.972;2023-04-02T13:14:20;9.20;99.90
1878;DHT22;939;51.426;6.972;2023-04-02T13:16:53;9.20;99.90
1878;DHT22;939;51.426;6.972;2023-04-02T13:19:29;9.20;99.90
1878;DHT22;939;51.426;6.972;2023-04-02T13:22:01;9.30;99.90
1878;DHT22;939;51.426;6.972;2023-04-02T13:24:32;9.30;99.90
1878;DHT22;939;51.426;6.972;2023-04-02T13:27:03;9.20;99.90
1878;DHT22;939;51.426;6.972;2023-04-02T13:29:31;9.20;99.90
1878;DHT22;939;51.426;6.972;2023-04-02T13:32:03;9.20;99.90
1878;DHT22;939;51.426;6.972;2023-04-02T13:34:31;9.20;99.90
1878;DHT22;939;51.426;6.972;2023-04-02T13:36:59;9.10;99.90
1878;DHT22;939;51.426;6.972;2023-04-02T13:39:37;9.10;99.90
1878;DHT22;939;51.426;6.972;2023-04-02T13:42:09;9.20;99.90
1878;DHT22;939;51.426;6.972;2023-04-02T13:47:24;9.40;99.90
1878;DHT22;939;51.426;6.972;2023-04-02T13:49:52;9.50;99.90
1878;DHT22;939;51.426;6.972;2023-04-02T13:52:40;9.40;99.90
1878;DHT22;939;51.426;6.972;2023-04-02T13:55:24;9.60;99.90
1878;DHT22;939;51.426;6.972;2023-04-02T13:57:54;9.60;99.90
1878;DHT22;939;51.426;6.972;2023-04-02T14:00:22;10.10;99.90
1878;DHT22;939;51.426;6.972;2023-04-02T14:02:52;10.40;99.90
1878;DHT22;939;51.426;6.972;2023-04-02T14:05:31;10.90;99.90
1878;DHT22;939;51.426;6.972;2023-04-02T14:08:07;11.80;99.90
1878;DHT22;939;51.426;6.972;2023-04-02T14:10:51;12.40;99.30
1878;DHT22;939;51.426;6.972;2023-04-02T14:13:31;12.70;95.80
1878;DHT22;939;51.426;6.972;2023-04-02T14:16:22;12.90;98.80
1878;DHT22;939;51.426;6.972;2023-04-02T14:19:07;12.70;97.60
1878;DHT22;939;51.426;6.972;2023-04-02T14:21:44;12.30;99.90
1878;DHT22;939;51.426;6.972;2023-04-02T14:24:20;12.70;95.60
1878;DHT22;939;51.426;6.972;2023-04-02T14:27:02;13.40;93.20
1878;DHT22;939;51.426;6.972;2023-04-02T14:29:35;13.50;94.80
1878;DHT22;939;51.426;6.972;2023-04-02T14:32:05;13.70;90.90
1878;DHT22;939;51.426;6.972;2023-04-02T14:34:40;13.50;94.00
1878;DHT22;939;51.426;6.972;2023-04-02T14:37:17;13.60;92.40
1878;DHT22;939;51.426;6.972;2023-04-02T14:39:53;13.60;90.70
1878;DHT22;939;51.426;6.972;2023-04-02T14:42:26;13.10;94.40
1878;DHT22;939;51.426;6.972;2023-04-02T14:45:00;12.80;91.60
1878;DHT22;939;51.426;6.972;2023-04-02T14:47:32;12.60;91.40
1878;DHT22;939;51.426;6.972;2023-04-02T14:50:09;12.30;96.50
1878;DHT22;939;51.426;6.972;2023-04-02T14:52:39;12.30;91.60
1878;DHT22;939;51.426;6.972;2023-04-02T14:55:13;12.20;96.00
1878;DHT22;939;51.426;6.972;2023-04-02T14:57:47;12.00;94.20
1878;DHT22;939;51.426;6.972;2023-04-02T15:00:25;11.60;95.90
1878;DHT22;939;51.426;6.972;2023-04-02T15:02:57;11.20;98.60
1878;DHT22;939;51.426;6.972;2023-04-02T15:05:34;11.40;96.30
1878;DHT22;939;51.426;6.972;2023-04-02T15:08:05;11.70;96.30
1878;DHT22;939;51.426;6.972;2023-04-02T15:10:35;11.70;96.00
1878;DHT22;939;51.426;6.972;2023-04-02T15:13:10;11.40;99.00
1878;DHT22;939;51.426;6.972;2023-04-02T15:15:40;11.60;96.90
1878;DHT22;939;51.426;6.972;2023-04-02T15:18:11;12.00;94.30
1878;DHT22;939;51.426;6.972;2023-04-02T15:20:46;12.70;92.70
1878;DHT22;939;51.426;6.972;2023-04-02T15:23:21;13.00;92.10
1878;DHT22;939;51.426;6.972;2023-04-02T15:26:01;13.30;92.20
1878;DHT22;939;51.426;6.972;2023-04-02T15:28:34;14.20;90.20
1878;DHT22;939;51.426;6.972;2023-04-02T15:31:07;14.20;86.20
1878;DHT22;939;51.426;6.972;2023-04-02T15:33:42;14.90;79.50
1878;DHT22;939;51.426;6.972;2023-04-02T15:39:32;17.00;70.00
1878;DHT22;939;51.426;6.972;2023-04-02T15:42:19;17.50;54.90
1878;DHT22;939;51.426;6.972;2023-04-02T15:50:47;17.10;50.50
1878;DHT22;939;51.426;6.972;2023-04-02T15:53:29;16.90;51.10
1878;DHT22;939;51.426;6.972;2023-04-02T15:56:07;17.30;48.20
1878;DHT22;939;51.426;6.972;2023-04-02T15:58:54;16.60;52.80
1878;DHT22;939;51.426;6.972;2023-04-02T16:01:28;16.20;52.90
1878;DHT22;939;51.426;6.972;2023-04-02T16:04:17;16.30;49.70
1878;DHT22;939;51.426;6.972;2023-04-02T16:06:59;16.20;54.60
1878;DHT22;939;51.426;6.972;2023-04-02T16:09:32;15.80;53.30
1878;DHT22;939;51.426;6.972;2023-04-02T16:12:13;15.90;56.10
1878;DHT22;939;51.426;6.972;2023-04-02T16:14:41;15.90;53.00
1878;DHT22;939;51.426;6.972;2023-04-02T16:17:13;15.50;56.80
1878;DHT22;939;51.426;6.972;2023-04-02T16:19:43;15.30;55.60
1878;DHT22;939;51.426;6.972;2023-04-02T16:22:16;14.60;57.30
1878;DHT22;939;51.426;6.972;2023-04-02T16:24:48;14.30;58.60
1878;DHT22;939;51.426;6.972;2023-04-02T16:27:25;14.70;58.80
1878;DHT22;939;51.426;6.972;2023-04-02T16:30:06;14.50;55.30
1878;DHT22;939;51.426;6.972;2023-04-02T16:32:50;14.40;56.10
1878;DHT22;939;51.426;6.972;2023-04-02T16:35:24;14.10;61.00
1878;DHT22;939;51.426;6.972;2023-04-02T16:37:56;13.60;65.10
1878;DHT22;939;51.426;6.972;2023-04-02T16:40:32;13.00;71.60
1878;DHT22;939;51.426;6.972;2023-04-02T16:43:10;12.60;70.20
1878;DHT22;939;51.426;6.972;2023-04-02T16:45:43;12.20;75.50
1878;DHT22;939;51.426;6.972;2023-04-02T16:48:18;12.00;80.20
1878;DHT22;939;51.426;6.972;2023-04-02T16:50:53;11.90;77.00
1878;DHT22;939;51.426;6.972;2023-04-02T16:53:31;11.70;80.00
1878;DHT22;939;51.426;6.972;2023-04-02T16:56:25;11.40;81.50
1878;DHT22;939;51.426;6.972;2023-04-02T16:58:59;11.50;84.10
1878;DHT22;939;51.426;6.972;2023-04-02T17:01:32;11.40;84.40
1878;DHT22;939;51.426;6.972;2023-04-02T17:04:12;11.30;90.40
1878;DHT22;939;51.426;6.972;2023-04-02T17:06:45;11.20;81.30
1878;DHT22;939;51.426;6.972;2023-04-02T17:09:15;11.10;85.40
1878;DHT22;939;51.426;6.972;2023-04-02T17:11:47;11.00;86.50
1878;DHT22;939;51.426;6.972;2023-04-02T17:14:27;11.00;85.90
1878;DHT22;939;51.426;6.972;2023-04-02T17:17:00;10.50;93.90
1878;DHT22;939;51.426;6.972;2023-04-02T17:19:29;10.40;92.30
1878;DHT22;939;51.426;6.972;2023-04-02T17:21:58;10.50;91.10
1878;DHT22;939;51.426;6.972;2023-04-02T17:24:29;10.40;91.60
1878;DHT22;939;51.426;6.972;2023-04-02T17:26:59;10.30;91.80
1878;DHT22;939;51.426;6.972;2023-04-02T17:29:33;10.30;92.90
1878;DHT22;939;51.426;6.972;2023-04-02T17:32:04;10.30;95.60
1878;DHT22;939;51.426;6.972;2023-04-02T17:34:32;10.00;96.00
1878;DHT22;939;51.426;6.972;2023-04-02T17:37:05;10.10;93.00
1878;DHT22;939;51.426;6.972;2023-04-02T17:39:42;10.10;95.60
1878;DHT22;939;51.426;6.972;2023-04-02T17:42:21;9.70;94.60
1878;DHT22;939;51.426;6.972;2023-04-02T17:44:58;9.90;95.40
1878;DHT22;939;51.426;6.972;2023-04-02T17:47:30;9.70;99.50
1878;DHT22;939;51.426;6.972;2023-04-02T17:50:21;9.80;97.50
1878;DHT22;939;51.426;6.972;2023-04-02T17:52:55;9.70;97.20
1878;DHT22;939;51.426;6.972;2023-04-02T17:55:30;9.80;95.90
1878;DHT22;939;51.426;6.972;2023-04-02T17:58:03;9.70;96.40
1878;DHT22;939;51.426;6.972;2023-04-02T18:00:44;9.70;97.20
1878;DHT22;939;51.426;6.972;2023-04-02T18:03:25;9.40;98.70
1878;DHT22;939;51.426;6.972;2023-04-02T18:05:59;9.40;97.70
1878;DHT22;939;51.426;6.972;2023-04-02T18:08:36;9.40;99.20
1878;DHT22;939;51.426;6.972;2023-04-02T18:11:10;9.50;97.50
1878;DHT22;939;51.426;6.972;2023-04-02T18:13:41;9.30;98.50
1878;DHT22;939;51.426;6.972;2023-04-02T18:16:24;9.10;99.20
1878;DHT22;939;51.426;6.972;2023-04-02T18:19:09;9.20;98.90
1878;DHT22;939;51.426;6.972;2023-04-02T18:21:43;9.20;99.90
1878;DHT22;939;51.426;6.972;2023-04-02T18:24:25;9.20;97.50
1878;DHT22;939;51.426;6.972;2023-04-02T18:27:02;9.20;98.10
1878;DHT22;939;51.426;6.972;2023-04-02T18:29:41;9.20;97.50
1878;DHT22;939;51.426;6.972;2023-04-02T18:32:31;9.10;99.50
1878;DHT22;939;51.426;6.972;2023-04-02T18:35:11;9.10;99.60
1878;DHT22;939;51.426;6.972;2023-04-02T18:37:50;9.10;97.60
1878;DHT22;939;51.426;6.972;2023-04-02T18:40:37;9.10;98.40
1878;DHT22;939;51.426;6.972;2023-04-02T18:43:17;9.10;99.70
1878;DHT22;939;51.426;6.972;2023-04-02T18:45:59;8.60;99.90
1878;DHT22;939;51.426;6.972;2023-04-02T18:48:37;8.70;99.90
1878;DHT22;939;51.426;6.972;2023-04-02T18:51:09;8.70;99.90
1878;DHT22;939;51.426;6.972;2023-04-02T18:53:40;8.70;99.90
1878;DHT22;939;51.426;6.972;2023-04-02T18:56:11;8.60;99.90
1878;DHT22;939;51.426;6.972;2023-04-02T18:58:45;8.60;99.90
1878;DHT22;939;51.426;6.972;2023-04-02T19:01:18;8.60;99.90
1878;DHT22;939;51.426;6.972;2023-04-02T19:03:50;8.60;99.90
1878;DHT22;939;51.426;6.972;2023-04-02T19:06:20;8.50;99.90
1878;DHT22;939;51.426;6.972;2023-04-02T19:08:50;8.50;99.90
1878;DHT22;939;51.426;6.972;2023-04-02T19:11:22;8.50;99.90
1878;DHT22;939;51.426;6.972;2023-04-02T19:13:53;8.40;99.90
1878;DHT22;939;51.426;6.972;2023-04-02T19:16:40;8.40;99.90
1878;DHT22;939;51.426;6.972;2023-04-02T19:19:14;8.40;99.90
1878;DHT22;939;51.426;6.972;2023-04-02T19:22:01;8.30;99.90
1878;DHT22;939;51.426;6.972;2023-04-02T19:24:43;8.30;99.90
1878;DHT22;939;51.426;6.972;2023-04-02T19:27:21;8.20;99.90
1878;DHT22;939;51.426;6.972;2023-04-02T19:29:59;8.20;99.90
1878;DHT22;939;51.426;6.972;2023-04-02T19:32:36;8.10;99.90
1878;DHT22;939;51.426;6.972;2023-04-02T19:35:17;8.10;99.90
1878;DHT22;939;51.426;6.972;2023-04-02T19:37:53;8.00;99.90
1878;DHT22;939;51.426;6.972;2023-04-02T19:40:29;8.00;99.90
1878;DHT22;939;51.426;6.972;2023-04-02T19:42:57;7.90;99.90
1878;DHT22;939;51.426;6.972;2023-04-02T19:45:34;7.90;99.90
1878;DHT22;939;51.426;6.972;2023-04-02T19:48:14;7.80;99.90
1878;DHT22;939;51.426;6.972;2023-04-02T19:50:42;7.80;99.90
1878;DHT22;939;51.426;6.972;2023-04-02T19:53:13;7.60;99.90
1878;DHT22;939;51.426;6.972;2023-04-02T19:55:54;7.40;99.90
1878;DHT22;939;51.426;6.972;2023-04-02T20:05:09;7.40;99.90
1878;DHT22;939;51.426;6.972;2023-04-02T20:05:39;7.40;99.90
1878;DHT22;939;51.426;6.972;2023-04-02T20:08:09;6.90;99.90
1878;DHT22;939;51.426;6.972;2023-04-02T20:10:53;6.90;99.90
1878;DHT22;939;51.426;6.972;2023-04-02T20:13:34;6.90;99.90
1878;DHT22;939;51.426;6.972;2023-04-02T20:16:07;7.00;99.90
1878;DHT22;939;51.426;6.972;2023-04-02T20:18:39;7.00;99.90
1878;DHT22;939;51.426;6.972;2023-04-02T20:21:10;7.00;99.90
1878;DHT22;939;51.426;6.972;2023-04-02T20:23:38;7.00;99.90
1878;DHT22;939;51.426;6.972;2023-04-02T20:26:17;7.00;99.90
1878;DHT22;939;51.426;6.972;2023-04-02T20:28:46;6.90;99.90
1878;DHT22;939;51.426;6.972;2023-04-02T20:32:08;6.60;99.90
1878;DHT22;939;51.426;6.972;2023-04-02T20:34:57;6.60;99.90
1878;DHT22;939;51.426;6.972;2023-04-02T20:37:59;6.70;99.90
1878;DHT22;939;51.426;6.972;2023-04-02T20:40:47;6.70;99.90
1878;DHT22;939;51.426;6.972;2023-04-02T20:43:59;6.60;99.90
1878;DHT22;939;51.426;6.972;2023-04-02T20:46:40;6.60;99.90
1878;DHT22;939;51.426;6.972;2023-04-02T20:49:50;6.50;99.90
1878;DHT22;939;51.426;6.972;2023-04-02T20:52:24;6.40;99.90
1878;DHT22;939;51.426;6.972;2023-04-02T20:55:17;6.40;99.90
1878;DHT22;939;51.426;6.972;2023-04-02T20:57:52;6.30;99.90
1878;DHT22;939;51.426;6.972;2023-04-02T21:00:31;6.30;99.90
1878;DHT22;939;51.426;6.972;2023-04-02T21:03:46;6.30;99.90
1878;DHT22;939;51.426;6.972;2023-04-02T21:06:22;6.20;99.90
1878;DHT22;939;51.426;6.972;2023-04-02T21:09:28;6.10;99.90
1878;DHT22;939;51.426;6.972;2023-04-02T21:12:19;6.10;99.90
1878;DHT22;939;51.426;6.972;2023-04-02T21:14:58;6.10;99.90
1878;DHT22;939;51.426;6.972;2023-04-02T21:17:27;6.10;99.90
1878;DHT22;939;51.426;6.972;2023-04-02T21:20:00;6.10;99.90
1878;DHT22;939;51.426;6.972;2023-04-02T21:22:36;6.10;99.90
1878;DHT22;939;51.426;6.972;2023-04-02T21:25:11;5.90;99.90
1878;DHT22;939;51.426;6.972;2023-04-02T21:30:48;5.90;99.90
1878;DHT22;939;51.426;6.972;2023-04-02T21:33:23;5.90;99.90
1878;DHT22;939;51.426;6.972;2023-04-02T21:35:50;5.80;99.90
1878;DHT22;939;51.426;6.972;2023-04-02T21:38:17;5.60;99.90
1878;DHT22;939;51.426;6.972;2023-04-02T21:40:45;5.10;99.90
1878;DHT22;939;51.426;6.972;2023-04-02T21:43:15;5.00;99.90
1878;DHT22;939;51.426;6.972;2023-04-02T21:45:50;5.10;99.90
1878;DHT22;939;51.426;6.972;2023-04-02T21:48:17;5.40;99.90
1878;DHT22;939;51.426;6.972;2023-04-02T21:50:44;5.50;99.90
1878;DHT22;939;51.426;6.972;2023-04-02T21:53:11;5.40;99.90
1878;DHT22;939;51.426;6.972;2023-04-02T21:55:38;5.40;99.90
1878;DHT22;939;51.426;6.972;2023-04-02T21:58:07;5.20;99.90
1878;DHT22;939;51.426;6.972;2023-04-02T22:00:34;5.20;99.90
1878;DHT22;939;51.426;6.972;2023-04-02T22:03:02;5.30;99.90
1878;DHT22;939;51.426;6.972;2023-04-02T22:05:29;5.40;99.90
1878;DHT22;939;51.426;6.972;2023-04-02T22:07:58;5.40;99.90
1878;DHT22;939;51.426;6.972;2023-04-02T22:10:25;5.40;99.90
1878;DHT22;939;51.426;6.972;2023-04-02T22:12:52;5.40;99.90
1878;DHT22;939;51.426;6.972;2023-04-02T22:15:19;5.40;99.90
1878;DHT22;939;51.426;6.972;2023-04-02T22:17:49;5.40;99.90
1878;DHT22;939;51.426;6.972;2023-04-02T22:23:37;5.30;99.90
1878;DHT22;939;51.426;6.972;2023-04-02T22:26:45;5.30;99.90
1878;DHT22;939;51.426;6.972;2023-04-02T22:37:11;5.20;99.90
1878;DHT22;939;51.426;6.972;2023-04-02T22:52:30;5.00;99.90
1878;DHT22;939;51.426;6.972;2023-04-02T22:54:58;5.00;99.90
1878;DHT22;939;51.426;6.972;2023-04-02T23:19:37;4.80;99.90
1878;DHT22;939;51.426;6.972;2023-04-02T23:22:08;4.70;99.90
1878;DHT22;939;51.426;6.972;2023-04-02T23:24:35;4.70;99.90
1878;DHT22;939;51.426;6.972;2023-04-02T23:27:03;4.70;99.90
1878;DHT22;939;51.426;6.972;2023-04-02T23:29:32;4.80;99.90
1878;DHT22;939;51.426;6.972;2023-04-02T23:32:09;4.70;99.90
1878;DHT22;939;51.426;6.972;2023-04-02T23:34:42;4.70;99.90
1878;DHT22;939;51.426;6.972;2023-04-02T23:37:09;4.70;99.90
1878;DHT22;939;51.426;6.972;2023-04-02T23:39:39;4.70;99.90
1878;DHT22;939;51.426;6.972;2023-04-02T23:42:33;4.60;99.90
1878;DHT22;939;51.426;6.972;2023-04-02T23:45:03;4.70;99.90
1878;DHT22;939;51.426;6.972;2023-04-02T23:47:30;4.60;99.90
1878;DHT22;939;51.426;6.972;2023-04-02T23:49:59;4.60;99.90
1878;DHT22;939;51.426;6.972;2023-04-02T23:52:28;4.60;99.90
1878;DHT22;939;51.426;6.972;2023-04-02T23:54:55;4.60;99.90
1878;DHT22;939;51.426;6.972;2023-04-02T23:57:24;4.60;99.90
